sensor_id;sensor_type;location;lat;lon;timestamp;P1;durP1;ratioP1;P2;durP2;ratioP2
7158;SDS011;63175;52.374;13.132;2022-11-25T00:00:54;9.90;;;8.90;;
7158;SDS011;63175;52.374;13.132;2022-11-25T00:03:29;9.93;;;8.93;;
7158;SDS011;63175;52.374;13.132;2022-11-25T00:05:56;12.40;;;10.83;;
7158;SDS011;63175;52.374;13.132;2022-11-25T00:08:32;10.30;;;9.30;;
7158;SDS011;63175;52.374;13.132;2022-11-25T00:11:00;12.13;;;10.53;;
7158;SDS011;63175;52.374;13.132;2022-11-25T00:13:27;11.73;;;10.50;;
7158;SDS011;63175;52.374;13.132;2022-11-25T00:15:54;12.23;;;10.77;;
7158;SDS011;63175;52.374;13.132;2022-11-25T00:18:21;14.13;;;10.50;;
7158;SDS011;63175;52.374;13.132;2022-11-25T00:20:48;13.30;;;11.00;;
7158;SDS011;63175;52.374;13.132;2022-11-25T00:23:15;11.90;;;10.30;;
7158;SDS011;63175;52.374;13.132;2022-11-25T00:25:41;12.03;;;10.57;;
7158;SDS011;63175;52.374;13.132;2022-11-25T00:28:10;11.60;;;10.40;;
7158;SDS011;63175;52.374;13.132;2022-11-25T00:30:36;10.70;;;9.60;;
7158;SDS011;63175;52.374;13.132;2022-11-25T00:33:03;10.70;;;9.60;;
7158;SDS011;63175;52.374;13.132;2022-11-25T00:35:30;10.30;;;9.20;;
7158;SDS011;63175;52.374;13.132;2022-11-25T00:37:59;10.40;;;9.33;;
7158;SDS011;63175;52.374;13.132;2022-11-25T00:40:26;11.13;;;9.57;;
7158;SDS011;63175;52.374;13.132;2022-11-25T00:42:53;10.77;;;9.70;;
7158;SDS011;63175;52.374;13.132;2022-11-25T00:45:38;9.90;;;8.70;;
7158;SDS011;63175;52.374;13.132;2022-11-25T00:48:04;10.17;;;9.10;;
7158;SDS011;63175;52.374;13.132;2022-11-25T00:50:31;11.17;;;9.97;;
7158;SDS011;63175;52.374;13.132;2022-11-25T00:52:58;10.97;;;9.80;;
7158;SDS011;63175;52.374;13.132;2022-11-25T00:55:25;11.23;;;10.10;;
7158;SDS011;63175;52.374;13.132;2022-11-25T00:58:12;13.47;;;10.27;;
7158;SDS011;63175;52.374;13.132;2022-11-25T01:00:40;10.70;;;9.67;;
7158;SDS011;63175;52.374;13.132;2022-11-25T01:03:07;12.30;;;10.40;;
7158;SDS011;63175;52.374;13.132;2022-11-25T01:05:36;17.43;;;13.60;;
7158;SDS011;63175;52.374;13.132;2022-11-25T01:08:03;18.10;;;14.30;;
7158;SDS011;63175;52.374;13.132;2022-11-25T01:10:30;14.63;;;12.00;;
7158;SDS011;63175;52.374;13.132;2022-11-25T01:12:57;16.10;;;12.53;;
7158;SDS011;63175;52.374;13.132;2022-11-25T01:15:24;12.33;;;10.50;;
7158;SDS011;63175;52.374;13.132;2022-11-25T01:17:52;11.67;;;10.27;;
7158;SDS011;63175;52.374;13.132;2022-11-25T01:20:19;11.47;;;10.13;;
7158;SDS011;63175;52.374;13.132;2022-11-25T01:22:46;10.50;;;9.10;;
7158;SDS011;63175;52.374;13.132;2022-11-25T01:25:13;11.03;;;9.93;;
7158;SDS011;63175;52.374;13.132;2022-11-25T01:27:40;11.83;;;10.37;;
7158;SDS011;63175;52.374;13.132;2022-11-25T01:30:07;11.90;;;9.87;;
7158;SDS011;63175;52.374;13.132;2022-11-25T01:32:35;11.37;;;9.47;;
7158;SDS011;63175;52.374;13.132;2022-11-25T01:35:03;10.93;;;9.53;;
7158;SDS011;63175;52.374;13.132;2022-11-25T01:37:31;10.13;;;9.10;;
7158;SDS011;63175;52.374;13.132;2022-11-25T01:39:58;10.90;;;9.80;;
7158;SDS011;63175;52.374;13.132;2022-11-25T01:42:27;10.80;;;9.70;;
7158;SDS011;63175;52.374;13.132;2022-11-25T01:48:00;11.70;;;10.13;;
7158;SDS011;63175;52.374;13.132;2022-11-25T01:50:36;10.73;;;9.50;;
7158;SDS011;63175;52.374;13.132;2022-11-25T01:53:04;10.60;;;9.60;;
7158;SDS011;63175;52.374;13.132;2022-11-25T01:55:34;12.20;;;10.40;;
7158;SDS011;63175;52.374;13.132;2022-11-25T01:58:03;11.67;;;9.83;;
7158;SDS011;63175;52.374;13.132;2022-11-25T02:00:33;10.97;;;9.27;;
7158;SDS011;63175;52.374;13.132;2022-11-25T02:03:01;11.43;;;10.10;;
7158;SDS011;63175;52.374;13.132;2022-11-25T02:05:31;11.50;;;10.30;;
7158;SDS011;63175;52.374;13.132;2022-11-25T02:08:05;10.20;;;9.20;;
7158;SDS011;63175;52.374;13.132;2022-11-25T02:10:33;9.67;;;8.63;;
7158;SDS011;63175;52.374;13.132;2022-11-25T02:13:00;10.40;;;8.50;;
7158;SDS011;63175;52.374;13.132;2022-11-25T02:15:28;12.97;;;10.03;;
7158;SDS011;63175;52.374;13.132;2022-11-25T02:17:58;12.27;;;9.07;;
7158;SDS011;63175;52.374;13.132;2022-11-25T02:20:25;15.70;;;10.60;;
7158;SDS011;63175;52.374;13.132;2022-11-25T02:22:56;11.53;;;10.17;;
7158;SDS011;63175;52.374;13.132;2022-11-25T02:25:30;14.87;;;10.90;;
7158;SDS011;63175;52.374;13.132;2022-11-25T02:28:00;12.80;;;11.20;;
7158;SDS011;63175;52.374;13.132;2022-11-25T02:30:29;14.17;;;11.20;;
7158;SDS011;63175;52.374;13.132;2022-11-25T02:32:56;10.47;;;9.33;;
7158;SDS011;63175;52.374;13.132;2022-11-25T02:35:34;12.43;;;9.80;;
7158;SDS011;63175;52.374;13.132;2022-11-25T02:38:04;17.43;;;11.13;;
7158;SDS011;63175;52.374;13.132;2022-11-25T02:40:35;11.60;;;9.80;;
7158;SDS011;63175;52.374;13.132;2022-11-25T02:43:06;12.20;;;9.97;;
7158;SDS011;63175;52.374;13.132;2022-11-25T02:45:46;11.30;;;10.10;;
7158;SDS011;63175;52.374;13.132;2022-11-25T02:48:17;11.57;;;9.23;;
7158;SDS011;63175;52.374;13.132;2022-11-25T02:50:45;12.50;;;9.33;;
7158;SDS011;63175;52.374;13.132;2022-11-25T02:53:12;12.77;;;10.93;;
7158;SDS011;63175;52.374;13.132;2022-11-25T02:55:40;11.63;;;9.53;;
7158;SDS011;63175;52.374;13.132;2022-11-25T02:58:07;10.23;;;9.23;;
7158;SDS011;63175;52.374;13.132;2022-11-25T03:00:34;13.27;;;10.30;;
7158;SDS011;63175;52.374;13.132;2022-11-25T03:03:01;16.00;;;10.87;;
7158;SDS011;63175;52.374;13.132;2022-11-25T03:05:28;10.63;;;9.53;;
7158;SDS011;63175;52.374;13.132;2022-11-25T03:07:55;10.60;;;9.10;;
7158;SDS011;63175;52.374;13.132;2022-11-25T03:10:22;11.53;;;9.23;;
7158;SDS011;63175;52.374;13.132;2022-11-25T03:12:50;11.67;;;9.33;;
7158;SDS011;63175;52.374;13.132;2022-11-25T03:15:17;11.57;;;9.40;;
7158;SDS011;63175;52.374;13.132;2022-11-25T03:17:44;12.00;;;10.23;;
7158;SDS011;63175;52.374;13.132;2022-11-25T03:20:12;10.97;;;9.33;;
7158;SDS011;63175;52.374;13.132;2022-11-25T03:22:39;11.53;;;10.33;;
7158;SDS011;63175;52.374;13.132;2022-11-25T03:25:06;16.17;;;11.83;;
7158;SDS011;63175;52.374;13.132;2022-11-25T03:27:35;14.00;;;11.73;;
7158;SDS011;63175;52.374;13.132;2022-11-25T03:30:04;14.53;;;10.43;;
7158;SDS011;63175;52.374;13.132;2022-11-25T03:32:32;12.37;;;11.07;;
7158;SDS011;63175;52.374;13.132;2022-11-25T03:34:59;10.90;;;9.80;;
7158;SDS011;63175;52.374;13.132;2022-11-25T03:37:26;13.93;;;11.20;;
7158;SDS011;63175;52.374;13.132;2022-11-25T03:39:53;12.47;;;10.03;;
7158;SDS011;63175;52.374;13.132;2022-11-25T03:42:20;13.70;;;11.13;;
7158;SDS011;63175;52.374;13.132;2022-11-25T03:44:47;11.60;;;9.73;;
7158;SDS011;63175;52.374;13.132;2022-11-25T03:47:15;11.97;;;10.20;;
7158;SDS011;63175;52.374;13.132;2022-11-25T03:49:42;13.20;;;10.97;;
7158;SDS011;63175;52.374;13.132;2022-11-25T03:52:08;12.13;;;10.33;;
7158;SDS011;63175;52.374;13.132;2022-11-25T03:54:35;10.37;;;9.30;;
7158;SDS011;63175;52.374;13.132;2022-11-25T03:57:02;11.07;;;8.80;;
7158;SDS011;63175;52.374;13.132;2022-11-25T03:59:29;10.30;;;8.63;;
7158;SDS011;63175;52.374;13.132;2022-11-25T04:01:56;13.57;;;11.20;;
7158;SDS011;63175;52.374;13.132;2022-11-25T04:04:24;10.40;;;9.30;;
7158;SDS011;63175;52.374;13.132;2022-11-25T04:06:51;11.60;;;9.97;;
7158;SDS011;63175;52.374;13.132;2022-11-25T04:09:18;13.10;;;10.30;;
7158;SDS011;63175;52.374;13.132;2022-11-25T04:11:45;11.93;;;10.40;;
7158;SDS011;63175;52.374;13.132;2022-11-25T04:14:29;12.20;;;9.93;;
7158;SDS011;63175;52.374;13.132;2022-11-25T04:16:56;14.87;;;10.83;;
7158;SDS011;63175;52.374;13.132;2022-11-25T04:19:24;11.70;;;10.03;;
7158;SDS011;63175;52.374;13.132;2022-11-25T04:21:51;10.93;;;9.83;;
7158;SDS011;63175;52.374;13.132;2022-11-25T04:24:18;11.47;;;10.27;;
7158;SDS011;63175;52.374;13.132;2022-11-25T04:26:45;10.30;;;9.20;;
7158;SDS011;63175;52.374;13.132;2022-11-25T04:29:12;12.03;;;8.83;;
7158;SDS011;63175;52.374;13.132;2022-11-25T04:31:39;12.57;;;10.40;;
7158;SDS011;63175;52.374;13.132;2022-11-25T04:34:06;11.07;;;10.03;;
7158;SDS011;63175;52.374;13.132;2022-11-25T04:36:35;12.10;;;10.60;;
7158;SDS011;63175;52.374;13.132;2022-11-25T04:39:02;10.73;;;9.63;;
7158;SDS011;63175;52.374;13.132;2022-11-25T04:41:29;10.33;;;9.33;;
7158;SDS011;63175;52.374;13.132;2022-11-25T04:43:58;12.77;;;9.80;;
7158;SDS011;63175;52.374;13.132;2022-11-25T04:46:26;11.53;;;9.50;;
7158;SDS011;63175;52.374;13.132;2022-11-25T04:48:58;10.03;;;9.00;;
7158;SDS011;63175;52.374;13.132;2022-11-25T04:51:24;10.93;;;9.83;;
7158;SDS011;63175;52.374;13.132;2022-11-25T04:53:52;10.00;;;8.60;;
7158;SDS011;63175;52.374;13.132;2022-11-25T04:56:19;10.63;;;9.60;;
7158;SDS011;63175;52.374;13.132;2022-11-25T04:58:46;11.07;;;8.43;;
7158;SDS011;63175;52.374;13.132;2022-11-25T05:01:31;9.87;;;8.47;;
7158;SDS011;63175;52.374;13.132;2022-11-25T05:03:58;10.37;;;9.27;;
7158;SDS011;63175;52.374;13.132;2022-11-25T05:06:24;10.30;;;9.30;;
7158;SDS011;63175;52.374;13.132;2022-11-25T05:08:53;11.57;;;9.53;;
7158;SDS011;63175;52.374;13.132;2022-11-25T05:11:20;9.57;;;8.67;;
7158;SDS011;63175;52.374;13.132;2022-11-25T05:13:46;11.70;;;9.37;;
7158;SDS011;63175;52.374;13.132;2022-11-25T05:16:13;11.10;;;9.53;;
7158;SDS011;63175;52.374;13.132;2022-11-25T05:18:40;15.50;;;10.47;;
7158;SDS011;63175;52.374;13.132;2022-11-25T05:21:07;10.07;;;8.97;;
7158;SDS011;63175;52.374;13.132;2022-11-25T05:23:34;12.17;;;9.60;;
7158;SDS011;63175;52.374;13.132;2022-11-25T05:26:02;10.13;;;9.13;;
7158;SDS011;63175;52.374;13.132;2022-11-25T05:28:30;10.17;;;9.17;;
7158;SDS011;63175;52.374;13.132;2022-11-25T05:30:57;11.70;;;9.40;;
7158;SDS011;63175;52.374;13.132;2022-11-25T05:33:24;11.97;;;10.43;;
7158;SDS011;63175;52.374;13.132;2022-11-25T05:35:54;11.40;;;10.17;;
7158;SDS011;63175;52.374;13.132;2022-11-25T05:38:23;11.73;;;10.37;;
7158;SDS011;63175;52.374;13.132;2022-11-25T05:40:51;9.47;;;8.43;;
7158;SDS011;63175;52.374;13.132;2022-11-25T05:43:19;10.50;;;8.73;;
7158;SDS011;63175;52.374;13.132;2022-11-25T05:45:46;10.17;;;9.10;;
7158;SDS011;63175;52.374;13.132;2022-11-25T05:48:13;12.33;;;10.40;;
7158;SDS011;63175;52.374;13.132;2022-11-25T05:50:40;11.27;;;9.10;;
7158;SDS011;63175;52.374;13.132;2022-11-25T05:53:07;12.60;;;10.63;;
7158;SDS011;63175;52.374;13.132;2022-11-25T05:55:35;11.90;;;10.30;;
7158;SDS011;63175;52.374;13.132;2022-11-25T05:58:02;12.27;;;10.67;;
7158;SDS011;63175;52.374;13.132;2022-11-25T06:00:31;11.17;;;9.90;;
7158;SDS011;63175;52.374;13.132;2022-11-25T06:02:58;12.60;;;10.03;;
7158;SDS011;63175;52.374;13.132;2022-11-25T06:05:25;11.23;;;9.27;;
7158;SDS011;63175;52.374;13.132;2022-11-25T06:07:52;9.93;;;8.10;;
7158;SDS011;63175;52.374;13.132;2022-11-25T06:10:19;10.73;;;8.97;;
7158;SDS011;63175;52.374;13.132;2022-11-25T06:12:46;9.77;;;8.00;;
7158;SDS011;63175;52.374;13.132;2022-11-25T06:15:13;11.93;;;8.83;;
7158;SDS011;63175;52.374;13.132;2022-11-25T06:17:41;9.37;;;7.67;;
7158;SDS011;63175;52.374;13.132;2022-11-25T06:20:08;8.87;;;7.40;;
7158;SDS011;63175;52.374;13.132;2022-11-25T06:22:35;12.13;;;9.27;;
7158;SDS011;63175;52.374;13.132;2022-11-25T06:25:03;11.17;;;9.37;;
7158;SDS011;63175;52.374;13.132;2022-11-25T06:27:30;10.03;;;9.03;;
7158;SDS011;63175;52.374;13.132;2022-11-25T06:29:57;11.17;;;9.40;;
7158;SDS011;63175;52.374;13.132;2022-11-25T06:32:24;12.03;;;10.03;;
7158;SDS011;63175;52.374;13.132;2022-11-25T06:34:52;10.40;;;9.30;;
7158;SDS011;63175;52.374;13.132;2022-11-25T06:37:19;11.20;;;8.40;;
7158;SDS011;63175;52.374;13.132;2022-11-25T06:39:46;10.43;;;9.00;;
7158;SDS011;63175;52.374;13.132;2022-11-25T06:42:12;11.60;;;8.50;;
7158;SDS011;63175;52.374;13.132;2022-11-25T06:44:39;10.07;;;7.90;;
7158;SDS011;63175;52.374;13.132;2022-11-25T06:47:06;9.83;;;7.93;;
7158;SDS011;63175;52.374;13.132;2022-11-25T06:49:33;11.63;;;8.93;;
7158;SDS011;63175;52.374;13.132;2022-11-25T06:52:01;7.93;;;6.97;;
7158;SDS011;63175;52.374;13.132;2022-11-25T06:54:28;9.70;;;8.70;;
7158;SDS011;63175;52.374;13.132;2022-11-25T06:56:55;10.33;;;8.87;;
7158;SDS011;63175;52.374;13.132;2022-11-25T06:59:22;9.80;;;7.80;;
7158;SDS011;63175;52.374;13.132;2022-11-25T07:01:49;9.20;;;7.87;;
7158;SDS011;63175;52.374;13.132;2022-11-25T07:04:16;9.50;;;8.13;;
7158;SDS011;63175;52.374;13.132;2022-11-25T07:06:42;9.10;;;8.20;;
7158;SDS011;63175;52.374;13.132;2022-11-25T07:09:11;9.50;;;8.13;;
7158;SDS011;63175;52.374;13.132;2022-11-25T07:11:38;10.40;;;8.67;;
7158;SDS011;63175;52.374;13.132;2022-11-25T07:14:06;11.53;;;9.83;;
7158;SDS011;63175;52.374;13.132;2022-11-25T07:16:36;12.60;;;9.90;;
7158;SDS011;63175;52.374;13.132;2022-11-25T07:19:04;14.67;;;10.10;;
7158;SDS011;63175;52.374;13.132;2022-11-25T07:21:32;10.73;;;9.03;;
7158;SDS011;63175;52.374;13.132;2022-11-25T07:24:01;13.47;;;9.80;;
7158;SDS011;63175;52.374;13.132;2022-11-25T07:26:31;11.10;;;8.80;;
7158;SDS011;63175;52.374;13.132;2022-11-25T07:28:59;10.40;;;9.30;;
7158;SDS011;63175;52.374;13.132;2022-11-25T07:31:28;9.63;;;8.70;;
7158;SDS011;63175;52.374;13.132;2022-11-25T07:33:56;8.70;;;7.83;;
7158;SDS011;63175;52.374;13.132;2022-11-25T07:36:25;8.87;;;8.07;;
7158;SDS011;63175;52.374;13.132;2022-11-25T07:38:53;10.33;;;9.23;;
7158;SDS011;63175;52.374;13.132;2022-11-25T07:41:20;8.73;;;7.93;;
7158;SDS011;63175;52.374;13.132;2022-11-25T07:43:51;8.70;;;7.80;;
7158;SDS011;63175;52.374;13.132;2022-11-25T07:46:20;9.23;;;8.30;;
7158;SDS011;63175;52.374;13.132;2022-11-25T07:48:49;8.27;;;7.50;;
7158;SDS011;63175;52.374;13.132;2022-11-25T07:51:17;7.37;;;6.67;;
7158;SDS011;63175;52.374;13.132;2022-11-25T07:53:48;8.57;;;7.77;;
7158;SDS011;63175;52.374;13.132;2022-11-25T07:56:16;7.70;;;7.00;;
7158;SDS011;63175;52.374;13.132;2022-11-25T07:58:43;7.13;;;6.60;;
7158;SDS011;63175;52.374;13.132;2022-11-25T08:01:12;8.03;;;7.33;;
7158;SDS011;63175;52.374;13.132;2022-11-25T08:03:41;8.40;;;7.60;;
7158;SDS011;63175;52.374;13.132;2022-11-25T08:06:15;8.27;;;7.47;;
7158;SDS011;63175;52.374;13.132;2022-11-25T08:08:44;7.73;;;7.03;;
7158;SDS011;63175;52.374;13.132;2022-11-25T08:11:11;6.83;;;6.30;;
7158;SDS011;63175;52.374;13.132;2022-11-25T08:13:41;8.47;;;7.67;;
7158;SDS011;63175;52.374;13.132;2022-11-25T08:16:09;9.03;;;8.10;;
7158;SDS011;63175;52.374;13.132;2022-11-25T08:18:39;9.70;;;7.97;;
7158;SDS011;63175;52.374;13.132;2022-11-25T08:21:06;9.30;;;7.87;;
7158;SDS011;63175;52.374;13.132;2022-11-25T08:23:35;8.07;;;7.27;;
7158;SDS011;63175;52.374;13.132;2022-11-25T08:26:03;8.07;;;7.37;;
7158;SDS011;63175;52.374;13.132;2022-11-25T08:28:31;7.70;;;7.10;;
7158;SDS011;63175;52.374;13.132;2022-11-25T08:31:01;7.53;;;6.93;;
7158;SDS011;63175;52.374;13.132;2022-11-25T08:33:31;7.07;;;6.43;;
7158;SDS011;63175;52.374;13.132;2022-11-25T08:35:58;7.97;;;7.17;;
7158;SDS011;63175;52.374;13.132;2022-11-25T08:38:25;7.90;;;7.10;;
7158;SDS011;63175;52.374;13.132;2022-11-25T08:40:53;9.03;;;7.80;;
7158;SDS011;63175;52.374;13.132;2022-11-25T08:43:20;8.77;;;7.33;;
7158;SDS011;63175;52.374;13.132;2022-11-25T08:45:47;8.63;;;7.80;;
7158;SDS011;63175;52.374;13.132;2022-11-25T08:48:14;8.93;;;8.03;;
7158;SDS011;63175;52.374;13.132;2022-11-25T08:50:45;8.20;;;7.40;;
7158;SDS011;63175;52.374;13.132;2022-11-25T08:53:13;8.30;;;7.50;;
7158;SDS011;63175;52.374;13.132;2022-11-25T08:55:41;10.70;;;7.43;;
7158;SDS011;63175;52.374;13.132;2022-11-25T08:58:08;8.53;;;7.73;;
7158;SDS011;63175;52.374;13.132;2022-11-25T09:00:37;8.70;;;7.83;;
7158;SDS011;63175;52.374;13.132;2022-11-25T09:03:05;9.83;;;8.07;;
7158;SDS011;63175;52.374;13.132;2022-11-25T09:05:31;8.10;;;7.30;;
7158;SDS011;63175;52.374;13.132;2022-11-25T09:08:01;9.80;;;8.50;;
7158;SDS011;63175;52.374;13.132;2022-11-25T09:10:29;8.30;;;7.40;;
7158;SDS011;63175;52.374;13.132;2022-11-25T09:12:56;8.70;;;7.63;;
7158;SDS011;63175;52.374;13.132;2022-11-25T09:15:24;8.30;;;7.60;;
7158;SDS011;63175;52.374;13.132;2022-11-25T09:17:56;7.90;;;7.20;;
7158;SDS011;63175;52.374;13.132;2022-11-25T09:20:23;7.57;;;6.87;;
7158;SDS011;63175;52.374;13.132;2022-11-25T09:22:50;8.47;;;7.67;;
7158;SDS011;63175;52.374;13.132;2022-11-25T09:25:18;7.50;;;6.80;;
7158;SDS011;63175;52.374;13.132;2022-11-25T09:27:46;8.57;;;7.77;;
7158;SDS011;63175;52.374;13.132;2022-11-25T09:30:13;9.40;;;7.47;;
7158;SDS011;63175;52.374;13.132;2022-11-25T09:32:40;7.17;;;6.50;;
7158;SDS011;63175;52.374;13.132;2022-11-25T09:35:08;8.20;;;7.40;;
7158;SDS011;63175;52.374;13.132;2022-11-25T09:37:35;8.93;;;8.03;;
7158;SDS011;63175;52.374;13.132;2022-11-25T09:40:02;11.83;;;7.80;;
7158;SDS011;63175;52.374;13.132;2022-11-25T09:42:32;7.87;;;7.17;;
7158;SDS011;63175;52.374;13.132;2022-11-25T09:45:31;7.33;;;6.70;;
7158;SDS011;63175;52.374;13.132;2022-11-25T09:48:32;7.80;;;7.10;;
7158;SDS011;63175;52.374;13.132;2022-11-25T09:51:20;8.20;;;7.13;;
7158;SDS011;63175;52.374;13.132;2022-11-25T09:53:50;10.27;;;8.03;;
7158;SDS011;63175;52.374;13.132;2022-11-25T09:56:23;9.70;;;8.30;;
7158;SDS011;63175;52.374;13.132;2022-11-25T09:58:58;10.20;;;8.60;;
7158;SDS011;63175;52.374;13.132;2022-11-25T10:01:30;9.23;;;8.33;;
7158;SDS011;63175;52.374;13.132;2022-11-25T10:04:00;9.77;;;8.10;;
7158;SDS011;63175;52.374;13.132;2022-11-25T10:06:31;10.57;;;7.87;;
7158;SDS011;63175;52.374;13.132;2022-11-25T10:09:09;8.40;;;7.50;;
7158;SDS011;63175;52.374;13.132;2022-11-25T10:11:42;12.90;;;7.83;;
7158;SDS011;63175;52.374;13.132;2022-11-25T10:14:19;9.73;;;8.03;;
7158;SDS011;63175;52.374;13.132;2022-11-25T10:16:53;8.67;;;7.80;;
7158;SDS011;63175;52.374;13.132;2022-11-25T10:19:25;9.60;;;8.60;;
7158;SDS011;63175;52.374;13.132;2022-11-25T10:22:01;8.47;;;7.67;;
7158;SDS011;63175;52.374;13.132;2022-11-25T10:24:41;10.57;;;7.73;;
7158;SDS011;63175;52.374;13.132;2022-11-25T10:27:10;8.27;;;7.30;;
7158;SDS011;63175;52.374;13.132;2022-11-25T10:29:45;7.60;;;6.90;;
7158;SDS011;63175;52.374;13.132;2022-11-25T10:32:20;8.93;;;6.73;;
7158;SDS011;63175;52.374;13.132;2022-11-25T10:34:50;11.63;;;7.80;;
7158;SDS011;63175;52.374;13.132;2022-11-25T10:37:24;7.30;;;5.30;;
7158;SDS011;63175;52.374;13.132;2022-11-25T10:39:54;6.97;;;5.67;;
7158;SDS011;63175;52.374;13.132;2022-11-25T10:42:21;8.97;;;6.20;;
7158;SDS011;63175;52.374;13.132;2022-11-25T10:44:51;8.17;;;5.37;;
7158;SDS011;63175;52.374;13.132;2022-11-25T10:47:29;8.07;;;5.40;;
7158;SDS011;63175;52.374;13.132;2022-11-25T10:50:05;10.10;;;5.93;;
7158;SDS011;63175;52.374;13.132;2022-11-25T10:52:40;5.77;;;5.00;;
7158;SDS011;63175;52.374;13.132;2022-11-25T10:55:14;5.93;;;5.20;;
7158;SDS011;63175;52.374;13.132;2022-11-25T10:57:42;8.47;;;5.23;;
7158;SDS011;63175;52.374;13.132;2022-11-25T11:00:24;7.30;;;5.87;;
7158;SDS011;63175;52.374;13.132;2022-11-25T11:02:54;11.40;;;5.17;;
7158;SDS011;63175;52.374;13.132;2022-11-25T11:05:22;7.30;;;5.50;;
7158;SDS011;63175;52.374;13.132;2022-11-25T11:08:05;10.87;;;5.93;;
7158;SDS011;63175;52.374;13.132;2022-11-25T11:10:34;7.77;;;5.73;;
7158;SDS011;63175;52.374;13.132;2022-11-25T11:13:02;8.10;;;5.33;;
7158;SDS011;63175;52.374;13.132;2022-11-25T11:15:33;6.13;;;4.57;;
7158;SDS011;63175;52.374;13.132;2022-11-25T11:18:18;6.57;;;4.60;;
7158;SDS011;63175;52.374;13.132;2022-11-25T11:20:49;9.40;;;5.83;;
7158;SDS011;63175;52.374;13.132;2022-11-25T11:23:18;7.97;;;5.17;;
7158;SDS011;63175;52.374;13.132;2022-11-25T11:25:53;6.50;;;4.80;;
7158;SDS011;63175;52.374;13.132;2022-11-25T11:28:28;7.43;;;5.30;;
7158;SDS011;63175;52.374;13.132;2022-11-25T11:31:05;9.00;;;5.40;;
7158;SDS011;63175;52.374;13.132;2022-11-25T11:33:42;13.73;;;5.87;;
7158;SDS011;63175;52.374;13.132;2022-11-25T11:36:30;5.83;;;4.40;;
7158;SDS011;63175;52.374;13.132;2022-11-25T11:39:08;7.70;;;4.37;;
7158;SDS011;63175;52.374;13.132;2022-11-25T11:41:54;8.63;;;4.40;;
7158;SDS011;63175;52.374;13.132;2022-11-25T11:44:30;10.03;;;5.20;;
7158;SDS011;63175;52.374;13.132;2022-11-25T11:47:14;7.97;;;4.40;;
7158;SDS011;63175;52.374;13.132;2022-11-25T11:49:54;9.83;;;4.80;;
7158;SDS011;63175;52.374;13.132;2022-11-25T11:52:31;6.00;;;4.50;;
7158;SDS011;63175;52.374;13.132;2022-11-25T11:55:13;12.10;;;5.33;;
7158;SDS011;63175;52.374;13.132;2022-11-25T11:57:50;7.83;;;4.87;;
7158;SDS011;63175;52.374;13.132;2022-11-25T12:00:29;7.90;;;4.40;;
7158;SDS011;63175;52.374;13.132;2022-11-25T12:02:59;10.03;;;4.30;;
7158;SDS011;63175;52.374;13.132;2022-11-25T12:05:34;9.17;;;4.17;;
7158;SDS011;63175;52.374;13.132;2022-11-25T12:08:04;7.40;;;4.43;;
7158;SDS011;63175;52.374;13.132;2022-11-25T12:10:36;6.90;;;3.83;;
7158;SDS011;63175;52.374;13.132;2022-11-25T12:13:09;5.50;;;4.10;;
7158;SDS011;63175;52.374;13.132;2022-11-25T12:15:42;11.80;;;4.27;;
7158;SDS011;63175;52.374;13.132;2022-11-25T12:18:19;4.47;;;3.90;;
7158;SDS011;63175;52.374;13.132;2022-11-25T12:20:56;4.17;;;3.57;;
7158;SDS011;63175;52.374;13.132;2022-11-25T12:23:28;7.83;;;6.20;;
7158;SDS011;63175;52.374;13.132;2022-11-25T12:26:01;7.70;;;4.23;;
7158;SDS011;63175;52.374;13.132;2022-11-25T12:28:34;6.93;;;3.90;;
7158;SDS011;63175;52.374;13.132;2022-11-25T12:31:10;6.67;;;4.03;;
7158;SDS011;63175;52.374;13.132;2022-11-25T12:33:44;6.37;;;3.60;;
7158;SDS011;63175;52.374;13.132;2022-11-25T12:36:20;9.77;;;5.30;;
7158;SDS011;63175;52.374;13.132;2022-11-25T12:38:53;8.30;;;3.50;;
7158;SDS011;63175;52.374;13.132;2022-11-25T12:41:22;8.83;;;3.67;;
7158;SDS011;63175;52.374;13.132;2022-11-25T12:43:56;7.97;;;3.90;;
7158;SDS011;63175;52.374;13.132;2022-11-25T12:46:27;4.80;;;3.47;;
7158;SDS011;63175;52.374;13.132;2022-11-25T12:49:01;7.10;;;2.90;;
7158;SDS011;63175;52.374;13.132;2022-11-25T12:51:45;21.87;;;4.53;;
7158;SDS011;63175;52.374;13.132;2022-11-25T12:54:56;6.80;;;3.43;;
7158;SDS011;63175;52.374;13.132;2022-11-25T12:57:49;5.77;;;2.77;;
7158;SDS011;63175;52.374;13.132;2022-11-25T13:01:00;8.00;;;4.40;;
7158;SDS011;63175;52.374;13.132;2022-11-25T13:04:15;6.83;;;3.83;;
7158;SDS011;63175;52.374;13.132;2022-11-25T13:07:24;11.97;;;3.73;;
7158;SDS011;63175;52.374;13.132;2022-11-25T13:10:01;7.53;;;2.97;;
7158;SDS011;63175;52.374;13.132;2022-11-25T13:12:45;5.30;;;3.17;;
7158;SDS011;63175;52.374;13.132;2022-11-25T13:15:25;6.90;;;3.50;;
7158;SDS011;63175;52.374;13.132;2022-11-25T13:17:55;9.10;;;4.50;;
7158;SDS011;63175;52.374;13.132;2022-11-25T13:23:27;9.33;;;3.83;;
7158;SDS011;63175;52.374;13.132;2022-11-25T13:32:25;12.87;;;4.93;;
7158;SDS011;63175;52.374;13.132;2022-11-25T13:41:22;5.93;;;3.33;;
7158;SDS011;63175;52.374;13.132;2022-11-25T13:43:51;10.13;;;4.00;;
7158;SDS011;63175;52.374;13.132;2022-11-25T13:46:26;6.30;;;4.10;;
7158;SDS011;63175;52.374;13.132;2022-11-25T13:48:56;7.80;;;3.53;;
7158;SDS011;63175;52.374;13.132;2022-11-25T13:51:22;7.73;;;3.90;;
7158;SDS011;63175;52.374;13.132;2022-11-25T13:53:51;10.10;;;4.07;;
7158;SDS011;63175;52.374;13.132;2022-11-25T13:56:27;9.43;;;4.50;;
7158;SDS011;63175;52.374;13.132;2022-11-25T14:01:52;6.47;;;3.57;;
7158;SDS011;63175;52.374;13.132;2022-11-25T14:04:20;7.90;;;3.60;;
7158;SDS011;63175;52.374;13.132;2022-11-25T14:07:05;11.30;;;4.10;;
7158;SDS011;63175;52.374;13.132;2022-11-25T14:09:45;5.00;;;3.23;;
7158;SDS011;63175;52.374;13.132;2022-11-25T14:15:36;10.87;;;4.87;;
7158;SDS011;63175;52.374;13.132;2022-11-25T14:18:25;9.17;;;4.47;;
7158;SDS011;63175;52.374;13.132;2022-11-25T14:20:59;5.23;;;4.00;;
7158;SDS011;63175;52.374;13.132;2022-11-25T14:26:30;7.47;;;3.90;;
7158;SDS011;63175;52.374;13.132;2022-11-25T14:29:01;5.90;;;3.50;;
7158;SDS011;63175;52.374;13.132;2022-11-25T14:31:32;5.50;;;3.30;;
7158;SDS011;63175;52.374;13.132;2022-11-25T14:34:05;8.80;;;3.87;;
7158;SDS011;63175;52.374;13.132;2022-11-25T14:36:38;5.80;;;3.77;;
7158;SDS011;63175;52.374;13.132;2022-11-25T14:39:12;5.57;;;3.90;;
7158;SDS011;63175;52.374;13.132;2022-11-25T14:41:45;4.73;;;3.40;;
7158;SDS011;63175;52.374;13.132;2022-11-25T14:44:20;6.53;;;3.90;;
7158;SDS011;63175;52.374;13.132;2022-11-25T14:46:50;4.47;;;3.50;;
7158;SDS011;63175;52.374;13.132;2022-11-25T14:49:18;4.20;;;3.80;;
7158;SDS011;63175;52.374;13.132;2022-11-25T14:51:46;4.40;;;2.70;;
7158;SDS011;63175;52.374;13.132;2022-11-25T14:54:15;4.37;;;3.50;;
7158;SDS011;63175;52.374;13.132;2022-11-25T14:56:42;3.47;;;3.17;;
7158;SDS011;63175;52.374;13.132;2022-11-25T14:59:11;4.27;;;3.23;;
7158;SDS011;63175;52.374;13.132;2022-11-25T15:01:50;5.23;;;3.50;;
7158;SDS011;63175;52.374;13.132;2022-11-25T15:04:19;10.90;;;3.77;;
7158;SDS011;63175;52.374;13.132;2022-11-25T15:06:48;5.60;;;3.60;;
7158;SDS011;63175;52.374;13.132;2022-11-25T15:09:18;7.93;;;4.30;;
7158;SDS011;63175;52.374;13.132;2022-11-25T15:11:47;7.57;;;4.57;;
7158;SDS011;63175;52.374;13.132;2022-11-25T15:14:20;6.67;;;4.37;;
7158;SDS011;63175;52.374;13.132;2022-11-25T15:16:51;7.90;;;5.17;;
7158;SDS011;63175;52.374;13.132;2022-11-25T15:19:20;10.00;;;4.03;;
7158;SDS011;63175;52.374;13.132;2022-11-25T15:21:51;7.70;;;4.73;;
7158;SDS011;63175;52.374;13.132;2022-11-25T15:24:23;4.97;;;3.83;;
7158;SDS011;63175;52.374;13.132;2022-11-25T15:26:51;7.40;;;4.70;;